Time;durP1;ratioP1;P1;durP2;ratioP2;P2;SDS_P1;SDS_P2;PMS_P1;PMS_P2;Temp;Humidity;BMP_temperature;BMP_pressure;BME280_temperature;BME280_humidity;BME280_pressure;Samples;Min_cycle;Max_cycle;Signal;HPM_P1;HPM_P2
2021/09/24 00:00:11;;;;;;;13.40;3.88;;;;;;;17.92;100.00;101688.56;4973994;28;20058;-61
2021/09/24 00:02:38;;;;;;;16.75;4.45;;;;;;;18.00;100.00;101681.59;4980678;28;20089;-61
2021/09/24 00:05:05;;;;;;;16.42;3.95;;;;;;;18.05;100.00;101687.16;4969090;28;20763;-61
2021/09/24 00:07:32;;;;;;;12.93;4.20;;;;;;;17.81;100.00;101675.66;4981701;28;20054;-61
2021/09/24 00:09:58;;;;;;;16.10;4.55;;;;;;;17.66;100.00;101677.38;4971464;28;20253;-61
2021/09/24 00:12:25;;;;;;;15.32;4.80;;;;;;;17.54;100.00;101685.72;4980448;28;20047;-62
2021/09/24 00:14:52;;;;;;;15.57;5.07;;;;;;;17.42;100.00;101678.31;4969444;28;20052;-61
2021/09/24 00:17:18;;;;;;;13.65;5.00;;;;;;;17.54;100.00;101682.22;4975618;28;20061;-61
2021/09/24 00:19:45;;;;;;;15.77;5.22;;;;;;;17.55;100.00;101678.59;4972798;28;20104;-61
2021/09/24 00:22:11;;;;;;;15.32;4.50;;;;;;;17.50;100.00;101683.56;4962677;28;20046;-61
2021/09/24 00:24:38;;;;;;;18.00;5.43;;;;;;;17.74;100.00;101678.19;4972536;28;20466;-61
2021/09/24 00:27:05;;;;;;;13.55;4.97;;;;;;;17.75;100.00;101677.16;4972816;28;20149;-61
2021/09/24 00:29:32;;;;;;;17.30;5.55;;;;;;;17.93;100.00;101679.59;4973957;28;20086;-61
2021/09/24 00:31:58;;;;;;;12.43;4.88;;;;;;;17.88;100.00;101676.66;4973392;28;20148;-61
2021/09/24 00:34:25;;;;;;;19.23;6.68;;;;;;;17.79;100.00;101675.00;4976616;28;20685;-60
2021/09/24 00:36:51;;;;;;;17.30;5.72;;;;;;;17.89;100.00;101674.81;4976700;28;20229;-60
2021/09/24 00:39:18;;;;;;;18.95;5.72;;;;;;;17.97;100.00;101678.28;4971969;28;20438;-62
2021/09/24 00:41:44;;;;;;;18.35;5.40;;;;;;;18.08;100.00;101676.22;4981131;28;20089;-62
2021/09/24 00:44:11;;;;;;;20.15;6.38;;;;;;;18.16;100.00;101662.88;4970947;28;20113;-62
2021/09/24 00:46:37;;;;;;;16.70;5.82;;;;;;;18.16;100.00;101668.19;4973885;28;20086;-62
2021/09/24 00:49:19;;;;;;;14.68;5.22;;;;;;;18.17;100.00;101667.22;4959563;28;20058;-62
2021/09/24 00:51:45;;;;;;;17.17;5.22;;;;;;;18.14;100.00;101668.38;4969422;28;20070;-63
2021/09/24 00:54:12;;;;;;;16.63;6.10;;;;;;;18.02;100.00;101668.97;4975960;28;20054;-62
2021/09/24 00:56:39;;;;;;;18.70;5.22;;;;;;;18.09;100.00;101672.53;4961646;28;20121;-61
2021/09/24 00:59:05;;;;;;;13.00;5.50;;;;;;;18.11;100.00;101662.56;4974120;28;20149;-60
2021/09/24 01:01:32;;;;;;;19.70;5.60;;;;;;;18.12;100.00;101657.09;4961582;28;20050;-61
2021/09/24 01:03:59;;;;;;;13.85;5.38;;;;;;;18.12;100.00;101658.94;4966007;28;20794;-61
2021/09/24 01:06:26;;;;;;;12.27;4.72;;;;;;;17.97;100.00;101657.03;4972229;28;20393;-60
2021/09/24 01:08:53;;;;;;;16.92;4.90;;;;;;;17.92;100.00;101661.22;4981028;28;20426;-62
2021/09/24 01:11:21;;;;;;;12.20;4.90;;;;;;;17.76;100.00;101662.09;4974866;28;20062;-62
2021/09/24 01:13:48;;;;;;;21.60;5.43;;;;;;;17.81;100.00;101656.25;4974620;28;20108;-62
2021/09/24 01:16:14;;;;;;;14.75;4.57;;;;;;;17.83;100.00;101656.91;4974323;28;20054;-62
2021/09/24 01:18:41;;;;;;;14.25;4.50;;;;;;;17.88;100.00;101663.38;4970729;28;20050;-62
2021/09/24 01:21:11;;;;;;;12.27;4.10;;;;;;;17.89;100.00;101656.25;4972806;28;20160;-62
2021/09/24 01:23:38;;;;;;;18.33;4.43;;;;;;;17.99;100.00;101659.50;4973691;28;20146;-62
2021/09/24 01:26:05;;;;;;;12.52;4.70;;;;;;;18.02;99.51;101661.00;4976245;28;20092;-61
2021/09/24 01:28:31;;;;;;;18.30;4.80;;;;;;;17.96;99.43;101659.88;4981533;28;20146;-62
2021/09/24 01:30:58;;;;;;;19.60;4.65;;;;;;;17.97;99.46;101654.38;4964904;28;20086;-62
2021/09/24 01:33:25;;;;;;;12.73;4.05;;;;;;;17.95;98.44;101652.88;4975240;28;20050;-62
2021/09/24 01:35:51;;;;;;;11.98;4.55;;;;;;;17.83;99.20;101654.25;4972651;28;20050;-62
2021/09/24 01:38:18;;;;;;;11.82;4.88;;;;;;;17.95;99.52;101652.88;4980057;28;20370;-61
2021/09/24 01:40:44;;;;;;;15.25;5.00;;;;;;;17.91;98.97;101652.41;4971451;28;20124;-62
2021/09/24 01:43:11;;;;;;;13.60;4.68;;;;;;;17.95;98.93;101643.13;4973446;28;20950;-61
2021/09/24 01:45:37;;;;;;;14.23;4.22;;;;;;;17.92;98.79;101651.41;4973175;28;20798;-63
2021/09/24 01:48:04;;;;;;;15.57;4.97;;;;;;;17.91;99.42;101646.28;4967816;28;20677;-60
2021/09/24 01:50:30;;;;;;;12.98;4.00;;;;;;;17.90;98.60;101648.13;4979856;28;20145;-62
2021/09/24 01:52:57;;;;;;;14.35;4.38;;;;;;;17.95;98.74;101645.78;4969611;28;20085;-62
2021/09/24 01:55:24;;;;;;;16.65;5.40;;;;;;;18.00;98.01;101649.72;4977606;28;20092;-62
2021/09/24 01:57:50;;;;;;;14.38;4.82;;;;;;;17.43;100.00;101648.16;4966401;28;20070;-61
2021/09/24 02:00:17;;;;;;;14.73;4.70;;;;;;;17.63;100.00;101638.75;4976135;28;20555;-62
2021/09/24 02:02:43;;;;;;;17.88;4.70;;;;;;;17.79;100.00;101638.66;4975199;28;20108;-62
2021/09/24 02:05:10;;;;;;;16.15;5.18;;;;;;;17.89;100.00;101632.34;4973128;28;20537;-62
2021/09/24 02:07:37;;;;;;;14.13;4.72;;;;;;;17.92;99.38;101643.47;4974612;28;20653;-62
2021/09/24 02:10:05;;;;;;;12.98;4.55;;;;;;;18.01;99.14;101633.59;4974351;28;20145;-62
2021/09/24 02:12:31;;;;;;;17.58;4.47;;;;;;;17.88;99.84;101626.22;4972868;28;20167;-61
2021/09/24 02:14:58;;;;;;;17.88;4.60;;;;;;;17.88;99.75;101628.88;4969765;28;20141;-62
2021/09/24 02:17:24;;;;;;;16.08;5.10;;;;;;;17.95;98.99;101623.69;4974973;28;20108;-62
2021/09/24 02:19:51;;;;;;;16.17;4.68;;;;;;;17.92;100.00;101621.41;4976702;28;20138;-62
2021/09/24 02:22:17;;;;;;;14.98;4.88;;;;;;;17.89;99.79;101619.09;4969997;28;20544;-61
2021/09/24 02:24:44;;;;;;;20.17;5.18;;;;;;;17.80;100.00;101626.25;4978169;28;20069;-61
2021/09/24 02:27:10;;;;;;;19.00;5.45;;;;;;;17.12;100.00;101623.19;4967370;28;20158;-61
2021/09/24 02:29:37;;;;;;;13.93;5.22;;;;;;;16.92;100.00;101620.09;4975224;28;20452;-61
2021/09/24 02:32:03;;;;;;;12.82;4.70;;;;;;;16.72;100.00;101619.63;4971254;28;20050;-62
2021/09/24 02:34:30;;;;;;;15.07;5.05;;;;;;;17.39;100.00;101618.47;4980577;28;20057;-62
2021/09/24 02:36:57;;;;;;;15.00;5.03;;;;;;;17.59;100.00;101621.53;4976796;28;20105;-61
2021/09/24 02:39:23;;;;;;;14.40;4.53;;;;;;;17.65;100.00;101609.41;4970066;28;20175;-61
2021/09/24 02:41:50;;;;;;;12.57;4.43;;;;;;;17.71;100.00;101614.03;4974038;28;20085;-60
2021/09/24 02:44:16;;;;;;;14.85;4.63;;;;;;;17.38;100.00;101620.28;4973463;28;20046;-62
2021/09/24 02:46:43;;;;;;;15.20;4.80;;;;;;;17.67;100.00;101610.88;4980050;28;20104;-61
2021/09/24 02:49:09;;;;;;;12.82;4.93;;;;;;;17.70;100.00;101610.56;4975592;28;20142;-62
2021/09/24 02:51:36;;;;;;;11.82;4.85;;;;;;;17.80;100.00;101615.63;4978207;28;20060;-62
2021/09/24 02:54:03;;;;;;;11.55;4.43;;;;;;;17.80;100.00;101610.31;4977574;28;20145;-61
2021/09/24 02:56:30;;;;;;;14.00;5.03;;;;;;;17.81;100.00;101606.66;4971094;28;20475;-62
2021/09/24 02:58:57;;;;;;;13.00;4.90;;;;;;;17.66;100.00;101608.41;4980247;28;20054;-61
2021/09/24 03:01:23;;;;;;;15.98;4.65;;;;;;;17.68;100.00;101606.41;4976285;28;20105;-62
2021/09/24 03:03:50;;;;;;;13.43;4.53;;;;;;;17.74;100.00;101603.88;4978519;28;20085;-62
2021/09/24 03:06:17;;;;;;;17.77;4.60;;;;;;;17.34;100.00;101608.38;4978547;28;20094;-62
2021/09/24 03:08:44;;;;;;;14.77;4.70;;;;;;;17.64;100.00;101605.94;4974007;28;20054;-62
2021/09/24 03:11:11;;;;;;;14.52;4.43;;;;;;;17.43;100.00;101606.53;4978443;28;20116;-61
2021/09/24 03:13:37;;;;;;;11.73;4.40;;;;;;;17.07;100.00;101614.09;4976005;28;20785;-61
2021/09/24 03:16:04;;;;;;;11.40;4.75;;;;;;;16.98;100.00;101605.34;4982434;28;20142;-62
2021/09/24 03:18:31;;;;;;;11.20;4.38;;;;;;;17.20;100.00;101609.09;4974041;28;20567;-62
2021/09/24 03:20:58;;;;;;;12.63;4.43;;;;;;;17.13;100.00;101597.50;4980401;28;20066;-61
2021/09/24 03:23:24;;;;;;;15.57;5.18;;;;;;;16.73;100.00;101592.13;4968175;28;20563;-62
2021/09/24 03:25:51;;;;;;;13.85;4.10;;;;;;;17.09;100.00;101596.19;4980999;28;20140;-62
2021/09/24 03:28:18;;;;;;;10.73;4.13;;;;;;;17.10;100.00;101596.03;4978256;28;20245;-62
2021/09/24 03:30:45;;;;;;;13.65;4.30;;;;;;;16.80;100.00;101597.59;4975212;28;20133;-62
2021/09/24 03:33:12;;;;;;;11.35;5.03;;;;;;;16.62;100.00;101597.75;4979619;28;20046;-62
2021/09/24 03:35:38;;;;;;;12.73;4.72;;;;;;;16.88;100.00;101594.94;4972013;28;20061;-61
2021/09/24 03:38:05;;;;;;;21.55;5.40;;;;;;;16.70;100.00;101597.75;4974861;28;20061;-62
2021/09/24 03:40:32;;;;;;;17.40;5.88;;;;;;;16.53;100.00;101604.88;4978157;28;20137;-62
2021/09/24 03:42:58;;;;;;;14.70;6.95;;;;;;;16.70;100.00;101596.91;4977991;28;20128;-61
2021/09/24 03:45:25;;;;;;;14.95;7.05;;;;;;;16.67;100.00;101591.97;4982752;28;20050;-62
2021/09/24 03:47:52;;;;;;;14.05;8.45;;;;;;;16.56;100.00;101591.31;4972557;28;20069;-61
2021/09/24 03:50:18;;;;;;;18.00;9.35;;;;;;;16.63;100.00;101593.31;4971269;28;20054;-62
2021/09/24 03:52:45;;;;;;;22.90;10.30;;;;;;;16.40;100.00;101594.78;4969112;28;20058;-61
2021/09/24 03:55:11;;;;;;;19.90;10.05;;;;;;;16.76;100.00;101594.44;4982466;28;20117;-62
2021/09/24 03:57:41;;;;;;;18.02;11.40;;;;;;;16.92;100.00;101596.25;4975610;28;20057;-61
2021/09/24 04:00:08;;;;;;;21.02;12.90;;;;;;;17.00;100.00;101600.72;4979463;28;20061;-62
2021/09/24 04:02:34;;;;;;;25.65;12.52;;;;;;;17.03;100.00;101602.19;4979903;28;20102;-62
2021/09/24 04:05:01;;;;;;;28.75;13.90;;;;;;;16.71;100.00;101588.00;4970160;28;20423;-61
2021/09/24 04:07:28;;;;;;;26.55;14.27;;;;;;;16.67;100.00;101590.13;4976696;28;20070;-61
2021/09/24 04:09:54;;;;;;;26.08;13.90;;;;;;;16.77;100.00;101590.78;4975158;28;20050;-61
2021/09/24 04:12:20;;;;;;;27.27;14.90;;;;;;;16.98;100.00;101594.75;4976410;28;20046;-62
2021/09/24 04:14:47;;;;;;;25.33;13.88;;;;;;;16.73;100.00;101600.06;4975360;28;20058;-62
2021/09/24 04:17:14;;;;;;;32.65;16.58;;;;;;;16.44;100.00;101594.47;4972804;28;20054;-61
2021/09/24 04:19:40;;;;;;;31.10;17.20;;;;;;;16.69;100.00;101603.22;4972209;28;20947;-62
2021/09/24 04:22:07;;;;;;;32.30;17.08;;;;;;;16.71;100.00;101595.94;4971393;28;20935;-61
2021/09/24 04:24:33;;;;;;;30.02;18.17;;;;;;;16.38;100.00;101601.25;4976867;28;20567;-62
2021/09/24 04:27:00;;;;;;;37.47;18.42;;;;;;;16.37;100.00;101603.06;4973870;28;20623;-61
2021/09/24 04:29:26;;;;;;;33.08;19.15;;;;;;;16.12;100.00;101610.16;4975160;28;20113;-62
2021/09/24 04:31:53;;;;;;;41.40;21.58;;;;;;;16.01;100.00;101603.38;4977115;28;20146;-61
2021/09/24 04:34:19;;;;;;;40.42;22.73;;;;;;;16.47;100.00;101608.22;4966000;28;20089;-61
2021/09/24 04:36:46;;;;;;;42.53;22.92;;;;;;;16.25;100.00;101604.41;4979323;28;20618;-62
2021/09/24 04:39:12;;;;;;;46.85;23.98;;;;;;;16.15;100.00;101609.84;4969287;28;20161;-62
2021/09/24 04:41:39;;;;;;;49.00;23.90;;;;;;;16.67;100.00;101615.81;4980291;28;20078;-62
2021/09/24 04:44:05;;;;;;;53.72;27.75;;;;;;;16.60;100.00;101607.69;4971834;28;20439;-62
2021/09/24 04:46:32;;;;;;;59.78;27.85;;;;;;;16.35;100.00;101605.06;4977352;28;20572;-61
2021/09/24 04:48:58;;;;;;;51.97;25.75;;;;;;;16.60;100.00;101618.28;4973520;28;20149;-62
2021/09/24 04:51:25;;;;;;;65.20;29.75;;;;;;;16.55;100.00;101608.19;4972475;28;20481;-60
2021/09/24 04:53:51;;;;;;;71.95;31.50;;;;;;;16.28;100.00;101604.06;4977274;28;20571;-61
2021/09/24 04:56:18;;;;;;;65.35;29.15;;;;;;;16.12;100.00;101604.06;4973274;28;20523;-61
2021/09/24 04:58:44;;;;;;;63.85;30.17;;;;;;;15.93;100.00;101599.88;4978327;28;20069;-61
2021/09/24 05:01:11;;;;;;;68.50;31.38;;;;;;;15.91;100.00;101599.22;4965627;28;20348;-61
2021/09/24 05:03:39;;;;;;;83.38;32.45;;;;;;;15.94;100.00;101607.66;4978291;28;20046;-62
2021/09/24 05:06:05;;;;;;;84.85;33.80;;;;;;;16.24;100.00;101601.91;4979132;28;20133;-61
2021/09/24 05:08:32;;;;;;;77.47;32.13;;;;;;;16.04;100.00;101596.94;4972164;28;20078;-61
2021/09/24 05:10:58;;;;;;;78.63;31.95;;;;;;;15.92;100.00;101600.88;4979093;28;20553;-62
2021/09/24 05:13:25;;;;;;;86.25;33.22;;;;;;;15.90;100.00;101598.41;4966369;28;20145;-62
2021/09/24 05:15:51;;;;;;;97.32;36.38;;;;;;;15.98;100.00;101597.59;4975506;28;20097;-62
2021/09/24 05:18:18;;;;;;;93.53;36.42;;;;;;;15.98;100.00;101594.94;4972334;28;20554;-62
2021/09/24 05:20:44;;;;;;;93.07;35.22;;;;;;;16.19;100.00;101592.66;4979155;28;20127;-62
2021/09/24 05:23:11;;;;;;;89.28;34.17;;;;;;;16.51;100.00;101600.75;4976671;28;20052;-61
2021/09/24 05:25:37;;;;;;;105.07;35.20;;;;;;;16.74;100.00;101593.78;4971500;28;20089;-62
2021/09/24 05:28:04;;;;;;;101.22;35.97;;;;;;;16.93;100.00;101594.44;4970028;28;20180;-61
2021/09/24 05:30:30;;;;;;;100.53;35.60;;;;;;;16.45;100.00;101602.25;4970159;28;20137;-62
2021/09/24 05:32:58;;;;;;;109.88;36.42;;;;;;;16.28;100.00;101590.81;4973422;28;20082;-61
2021/09/24 05:35:24;;;;;;;110.57;36.13;;;;;;;16.39;100.00;101595.78;4972893;28;20531;-60
2021/09/24 05:37:51;;;;;;;106.00;37.78;;;;;;;16.50;100.00;101585.84;4976829;28;20125;-62
2021/09/24 05:40:17;;;;;;;99.55;35.90;;;;;;;16.64;100.00;101590.50;4977438;28;20686;-61
2021/09/24 05:42:44;;;;;;;97.40;36.70;;;;;;;16.44;100.00;101584.69;4967414;28;20042;-62
2021/09/24 05:45:14;;;;;;;109.05;36.60;;;;;;;16.61;100.00;101585.53;4977220;28;20057;-62
2021/09/24 05:47:42;;;;;;;119.95;37.60;;;;;;;16.66;100.00;101587.66;4972071;28;20142;-62
2021/09/24 05:50:13;;;;;;;128.98;39.97;;;;;;;16.90;100.00;101590.31;4976602;28;20144;-62
2021/09/24 05:52:50;;;;;;;112.68;38.13;;;;;;;16.98;100.00;101586.81;4970282;28;20063;-61
2021/09/24 05:55:19;;;;;;;116.90;39.22;;;;;;;17.04;100.00;101585.31;4975033;28;20050;-62
2021/09/24 05:57:46;;;;;;;115.68;38.25;;;;;;;16.59;100.00;101585.69;4973855;28;20106;-62
2021/09/24 06:00:15;;;;;;;104.93;38.80;;;;;;;16.98;100.00;101589.47;4972185;28;20242;-62
2021/09/24 06:02:43;;;;;;;115.82;39.80;;;;;;;16.89;100.00;101590.47;4976970;28;20047;-60
2021/09/24 06:05:10;;;;;;;113.32;39.28;;;;;;;17.10;100.00;101590.72;4973926;28;20054;-62
2021/09/24 06:07:36;;;;;;;119.72;40.65;;;;;;;17.24;100.00;101597.16;4978094;28;20093;-62
2021/09/24 06:10:05;;;;;;;112.57;40.95;;;;;;;17.30;100.00;101595.63;4965728;28;20161;-61
2021/09/24 06:12:31;;;;;;;124.40;40.70;;;;;;;17.30;100.00;101593.00;4973685;28;20082;-62
2021/09/24 06:15:00;;;;;;;112.05;38.80;;;;;;;17.19;100.00;101591.56;4978734;28;20056;-62
2021/09/24 06:17:28;;;;;;;128.20;41.97;;;;;;;17.13;100.00;101594.84;4981053;28;20086;-62
2021/09/24 06:19:55;;;;;;;131.90;43.85;;;;;;;17.30;100.00;101588.50;4980932;28;20074;-62
2021/09/24 06:22:22;;;;;;;140.70;43.72;;;;;;;17.21;100.00;101594.84;4974163;28;20165;-61
2021/09/24 06:24:49;;;;;;;142.80;44.85;;;;;;;17.19;100.00;101592.38;4981472;28;20512;-59
2021/09/24 06:27:16;;;;;;;137.05;39.65;;;;;;;16.95;100.00;101592.44;4977438;28;20134;-61
2021/09/24 06:29:48;;;;;;;138.90;40.42;;;;;;;17.18;100.00;101589.88;4980962;28;20562;-62
2021/09/24 06:32:15;;;;;;;128.73;41.53;;;;;;;16.91;100.00;101597.25;4980504;28;20492;-61
2021/09/24 06:34:43;;;;;;;123.13;40.33;;;;;;;16.81;100.00;101588.63;4971764;28;20947;-61
2021/09/24 06:37:10;;;;;;;151.80;42.17;;;;;;;17.06;100.00;101591.25;4980294;28;20157;-62
2021/09/24 06:39:37;;;;;;;144.25;42.92;;;;;;;16.56;100.00;101595.78;4972497;28;20149;-62
2021/09/24 06:42:05;;;;;;;134.38;43.58;;;;;;;16.73;100.00;101589.47;4981751;28;20153;-62
2021/09/24 06:44:32;;;;;;;141.63;44.20;;;;;;;16.48;100.00;101593.13;4976354;28;20578;-62
2021/09/24 06:46:58;;;;;;;144.23;41.92;;;;;;;16.41;100.00;101595.63;4981079;28;20085;-62
2021/09/24 06:49:25;;;;;;;141.23;42.38;;;;;;;16.38;100.00;101604.72;4971891;28;20070;-63
2021/09/24 06:51:53;;;;;;;134.07;39.92;;;;;;;16.40;100.00;101602.72;4977254;28;20054;-62
2021/09/24 06:54:20;;;;;;;146.38;41.83;;;;;;;17.00;100.00;101609.47;4980316;28;20641;-62
2021/09/24 06:56:47;;;;;;;133.88;38.30;;;;;;;17.19;100.00;101610.94;4977283;28;20120;-62
2021/09/24 06:59:14;;;;;;;143.55;44.53;;;;;;;16.98;100.00;101613.31;4977546;28;20141;-62
2021/09/24 07:01:44;;;;;;;153.85;43.58;;;;;;;16.77;100.00;101611.16;4972656;28;20169;-62
2021/09/24 07:04:12;;;;;;;153.18;43.35;;;;;;;17.06;100.00;101612.47;4978103;28;20046;-62
2021/09/24 07:06:39;;;;;;;150.50;43.33;;;;;;;17.10;100.00;101597.88;4979666;28;20078;-63
2021/09/24 07:09:06;;;;;;;146.68;43.30;;;;;;;17.32;100.00;101601.59;4977946;28;20078;-62
2021/09/24 07:11:34;;;;;;;160.63;43.65;;;;;;;17.49;100.00;101605.03;4979602;28;20054;-62
2021/09/24 07:14:01;;;;;;;161.10;44.73;;;;;;;17.46;100.00;101600.88;4971739;28;20125;-62
2021/09/24 07:16:27;;;;;;;170.38;45.20;;;;;;;17.28;100.00;101592.34;4976009;28;20320;-61
2021/09/24 07:18:54;;;;;;;198.13;49.78;;;;;;;16.96;100.00;101594.09;4972883;28;20161;-62
2021/09/24 07:21:20;;;;;;;187.77;49.08;;;;;;;17.31;100.00;101594.66;4980940;28;20054;-62
2021/09/24 07:23:47;;;;;;;163.18;44.33;;;;;;;17.19;100.00;101589.72;4972525;28;20054;-61
2021/09/24 07:26:14;;;;;;;197.70;49.40;;;;;;;17.05;100.00;101590.41;4979864;28;20502;-62
2021/09/24 07:28:40;;;;;;;179.93;47.63;;;;;;;17.48;100.00;101592.75;4975031;28;20133;-62
2021/09/24 07:31:06;;;;;;;211.38;49.80;;;;;;;17.42;100.00;101596.09;4970045;28;20085;-62
2021/09/24 07:33:33;;;;;;;213.52;49.80;;;;;;;17.13;100.00;101592.22;4979119;28;20138;-62
2021/09/24 07:35:59;;;;;;;197.00;47.45;;;;;;;17.06;100.00;101602.69;4974718;28;20042;-62
2021/09/24 07:38:26;;;;;;;253.20;49.65;;;;;;;17.04;100.00;101599.38;4979552;28;20050;-64
2021/09/24 07:40:53;;;;;;;234.70;49.63;;;;;;;17.02;100.00;101603.19;4973266;28;20133;-61
2021/09/24 07:43:20;;;;;;;228.10;49.55;;;;;;;17.32;100.00;101607.72;4975138;28;20065;-63
2021/09/24 07:45:46;;;;;;;244.95;50.50;;;;;;;17.29;100.00;101605.44;4976787;28;20177;-63
2021/09/24 07:48:13;;;;;;;261.17;53.78;;;;;;;17.32;100.00;101613.03;4974674;28;20074;-61
2021/09/24 07:50:39;;;;;;;245.48;49.50;;;;;;;17.03;100.00;101616.25;4979660;28;20563;-62
2021/09/24 07:53:06;;;;;;;249.98;49.08;;;;;;;17.03;100.00;101615.44;4975320;28;20140;-61
2021/09/24 07:55:33;;;;;;;243.77;49.92;;;;;;;17.18;100.00;101621.69;4980291;28;20081;-61
2021/09/24 07:57:59;;;;;;;269.42;52.13;;;;;;;17.01;100.00;101607.66;4972458;28;20526;-62
2021/09/24 08:00:28;;;;;;;259.17;53.83;;;;;;;16.89;100.00;101617.78;4969102;28;20137;-62
2021/09/24 08:02:55;;;;;;;274.30;52.08;;;;;;;16.89;100.00;101616.97;4979992;28;20058;-63
2021/09/24 08:05:22;;;;;;;279.08;51.92;;;;;;;17.42;100.00;101620.78;4974388;28;20605;-64
2021/09/24 08:07:48;;;;;;;276.80;51.03;;;;;;;17.46;100.00;101614.13;4981261;28;20153;-63
2021/09/24 08:10:15;;;;;;;279.90;52.67;;;;;;;17.17;100.00;101617.38;4967195;28;20178;-63
2021/09/24 08:12:41;;;;;;;279.17;56.90;;;;;;;17.75;100.00;101615.31;4977871;28;20352;-62
2021/09/24 08:15:13;;;;;;;274.33;52.53;;;;;;;18.06;100.00;101617.16;4977965;28;20054;-65
2021/09/24 08:17:39;;;;;;;274.17;54.30;;;;;;;17.89;100.00;101614.59;4976183;28;20074;-62
2021/09/24 08:20:07;;;;;;;294.52;55.13;;;;;;;17.68;100.00;101620.50;4978092;28;20053;-62
2021/09/24 08:22:38;;;;;;;293.92;52.85;;;;;;;18.10;100.00;101610.50;4976383;28;20151;-64
2021/09/24 08:25:10;;;;;;;276.08;52.05;;;;;;;17.92;100.00;101616.09;4973149;28;20104;-63
2021/09/24 08:27:37;;;;;;;286.30;55.33;;;;;;;17.39;100.00;101615.84;4970397;28;20472;-62
2021/09/24 08:30:06;;;;;;;258.02;50.53;;;;;;;17.30;100.00;101628.28;4974917;28;20082;-62
2021/09/24 08:32:36;;;;;;;243.88;50.03;;;;;;;17.17;100.00;101620.88;4973830;28;20149;-63
2021/09/24 08:35:09;;;;;;;254.27;51.72;;;;;;;17.28;100.00;101621.50;4976618;28;20141;-62
2021/09/24 08:37:37;;;;;;;257.85;49.83;;;;;;;17.88;100.00;101628.88;4981159;28;20140;-61
2021/09/24 08:40:06;;;;;;;234.55;51.17;;;;;;;18.08;100.00;101625.78;4964158;28;20547;-61
2021/09/24 08:42:33;;;;;;;263.13;51.75;;;;;;;18.27;100.00;101627.13;4977597;28;20073;-61
2021/09/24 08:45:00;;;;;;;230.80;47.38;;;;;;;17.81;100.00;101630.53;4971575;28;20042;-61
2021/09/24 08:47:28;;;;;;;218.55;49.30;;;;;;;17.95;100.00;101624.53;4980740;28;20082;-61
2021/09/24 08:49:55;;;;;;;229.13;50.85;;;;;;;17.77;100.00;101623.94;4970935;28;20137;-61
2021/09/24 08:52:21;;;;;;;241.20;51.50;;;;;;;17.78;100.00;101615.81;4974892;28;20511;-61
2021/09/24 08:54:48;;;;;;;209.38;46.97;;;;;;;18.16;100.00;101620.41;4971955;28;20136;-61
2021/09/24 08:57:15;;;;;;;220.18;48.05;;;;;;;18.31;100.00;101621.28;4969757;28;20082;-61
2021/09/24 08:59:42;;;;;;;189.25;46.45;;;;;;;17.91;100.00;101625.03;4975215;28;20470;-61
2021/09/24 09:02:09;;;;;;;206.00;48.35;;;;;;;18.52;100.00;101614.47;4970634;28;20948;-61
2021/09/24 09:04:39;;;;;;;184.32;46.25;;;;;;;18.76;100.00;101616.91;4975467;28;20053;-61
2021/09/24 09:07:11;;;;;;;168.88;42.90;;;;;;;18.46;100.00;101607.22;4966094;28;20133;-62
2021/09/24 09:09:40;;;;;;;172.55;46.15;;;;;;;18.68;100.00;101609.03;4972527;28;21053;-61
2021/09/24 09:12:15;;;;;;;167.05;42.72;;;;;;;18.68;100.00;101611.69;4978356;28;20146;-61
2021/09/24 09:14:55;;;;;;;158.40;42.42;;;;;;;18.51;100.00;101608.34;4972903;28;20047;-61
2021/09/24 09:17:36;;;;;;;154.68;42.67;;;;;;;18.96;100.00;101608.44;4977847;28;20064;-61
2021/09/24 09:20:23;;;;;;;142.80;42.55;;;;;;;19.20;100.00;101611.84;4967646;28;20081;-61
2021/09/24 09:23:05;;;;;;;134.23;40.97;;;;;;;18.69;100.00;101605.34;4972173;28;20082;-61
2021/09/24 09:25:42;;;;;;;130.35;40.47;;;;;;;19.15;100.00;101601.72;4972551;28;20047;-62
2021/09/24 09:28:13;;;;;;;123.20;39.00;;;;;;;18.94;100.00;101599.81;4978166;28;20081;-61
2021/09/24 09:30:42;;;;;;;134.50;45.53;;;;;;;18.75;100.00;101596.66;4972546;28;20146;-61
2021/09/24 09:33:15;;;;;;;117.35;40.22;;;;;;;19.44;100.00;101595.56;4977293;28;20054;-61
2021/09/24 09:35:46;;;;;;;118.22;39.67;;;;;;;19.80;100.00;101596.59;4966642;28;20047;-61
2021/09/24 09:38:36;;;;;;;112.35;38.63;;;;;;;19.61;100.00;101590.84;4975406;28;20078;-62
2021/09/24 09:41:09;;;;;;;100.95;37.63;;;;;;;19.37;100.00;101589.34;4970096;28;20078;-61
2021/09/24 09:43:37;;;;;;;105.78;37.65;;;;;;;19.29;100.00;101589.47;4977112;28;20137;-62
2021/09/24 09:46:06;;;;;;;87.65;35.22;;;;;;;19.44;100.00;101600.06;4978662;28;20138;-61
2021/09/24 09:48:33;;;;;;;97.95;34.28;;;;;;;19.85;100.00;101589.69;4965473;28;20142;-61
2021/09/24 09:51:00;;;;;;;90.05;32.95;;;;;;;19.69;100.00;101589.91;4979128;28;20061;-61
2021/09/24 09:53:28;;;;;;;80.70;33.78;;;;;;;19.82;97.61;101600.75;4976029;28;20070;-61
2021/09/24 09:56:01;;;;;;;76.93;31.55;;;;;;;19.74;100.00;101585.72;4980300;28;20174;-62
2021/09/24 09:58:31;;;;;;;74.43;31.92;;;;;;;20.21;96.02;101582.66;4977902;28;20058;-62
2021/09/24 10:01:03;;;;;;;73.03;30.95;;;;;;;20.22;93.55;101582.47;4980212;28;21268;-62
2021/09/24 10:03:34;;;;;;;63.80;29.65;;;;;;;19.75;97.81;101586.53;4975861;28;20077;-62
2021/09/24 10:06:04;;;;;;;65.85;29.58;;;;;;;20.25;94.02;101573.31;4975321;28;20899;-62
2021/09/24 10:08:32;;;;;;;62.45;29.10;;;;;;;19.68;97.44;101575.78;4981152;28;20145;-62
2021/09/24 10:11:19;;;;;;;63.90;27.88;;;;;;;19.37;96.68;101578.72;4974705;28;20133;-62
2021/09/24 10:13:59;;;;;;;54.05;28.33;;;;;;;19.81;96.21;101566.31;4982135;28;20258;-62
2021/09/24 10:16:41;;;;;;;64.22;28.75;;;;;;;19.45;99.23;101570.63;4967311;28;20086;-62
2021/09/24 10:19:09;;;;;;;56.47;27.10;;;;;;;19.37;100.00;101570.72;4978315;28;20077;-62
2021/09/24 10:21:50;;;;;;;63.63;27.67;;;;;;;19.51;97.46;101569.88;4973188;28;20559;-63
2021/09/24 10:24:17;;;;;;;56.72;27.15;;;;;;;19.73;96.41;101562.75;4980816;28;20085;-62
2021/09/24 10:26:48;;;;;;;50.40;25.00;;;;;;;20.29;92.24;101563.91;4974800;28;20150;-62
2021/09/24 10:29:25;;;;;;;53.10;26.65;;;;;;;20.57;89.32;101565.75;4981403;28;20050;-63
2021/09/24 10:31:52;;;;;;;53.80;26.02;;;;;;;20.72;88.68;101567.31;4974693;28;20153;-62
2021/09/24 10:34:20;;;;;;;47.88;24.92;;;;;;;20.22;89.73;101561.16;4976221;28;20564;-62
2021/09/24 10:36:53;;;;;;;50.35;24.95;;;;;;;20.98;87.51;101565.81;4982237;28;20133;-62
2021/09/24 10:39:29;;;;;;;48.88;25.52;;;;;;;20.56;90.88;101564.91;4974971;28;20080;-61
2021/09/24 10:42:16;;;;;;;49.38;25.80;;;;;;;20.02;89.17;101563.66;4980740;28;20152;-61
2021/09/24 10:45:04;;;;;;;58.13;27.52;;;;;;;19.98;89.94;101565.06;4976105;28;20085;-61
2021/09/24 10:47:52;;;;;;;52.30;26.30;;;;;;;19.99;90.17;101557.88;4979181;28;20141;-61
2021/09/24 10:50:30;;;;;;;48.78;26.17;;;;;;;20.25;86.77;101559.97;4971209;28;20529;-60
2021/09/24 10:53:09;;;;;;;51.22;26.05;;;;;;;20.20;88.72;101565.03;4985304;28;20508;-62
2021/09/24 10:55:40;;;;;;;49.88;26.13;;;;;;;20.18;87.30;101562.56;4974263;28;20067;-61
2021/09/24 10:58:11;;;;;;;54.08;25.30;;;;;;;20.22;89.08;101555.84;4978908;28;20077;-62
2021/09/24 11:00:48;;;;;;;59.67;28.95;;;;;;;19.85;91.27;101556.94;4976513;28;20540;-62
2021/09/24 11:03:20;;;;;;;54.97;28.85;;;;;;;20.08;90.53;101568.22;4977322;28;20053;-61
2021/09/24 11:05:56;;;;;;;57.95;26.33;;;;;;;20.08;89.84;101557.56;4980451;28;20110;-62